createdAt,value
2022-12-08T00:03:25.662Z,24.20
2022-12-08T00:08:51.749Z,16.57
2022-12-08T00:13:59.467Z,16.90
2022-12-08T00:19:07.501Z,15.67
2022-12-08T00:24:15.295Z,11.63
2022-12-08T00:29:23.959Z,13.93
2022-12-08T00:34:32.455Z,15.03
2022-12-08T00:39:40.020Z,17.13
2022-12-08T00:44:48.711Z,14.93
2022-12-08T00:49:56.472Z,17.67
2022-12-08T00:55:06.916Z,14.17
2022-12-08T01:00:17.323Z,15.83
2022-12-08T01:05:25.560Z,13.83
2022-12-08T01:10:37.265Z,14.77
2022-12-08T01:15:45.185Z,18.67
2022-12-08T01:20:54.143Z,14.50
2022-12-08T01:26:10.558Z,13.57
2022-12-08T01:31:20.451Z,18.80
2022-12-08T01:36:30.344Z,16.67
2022-12-08T01:41:38.921Z,19.87
2022-12-08T01:46:48.882Z,15.83
2022-12-08T01:52:03.128Z,18.47
2022-12-08T01:57:20.802Z,19.80
2022-12-08T02:02:32.734Z,18.17
2022-12-08T02:07:41.178Z,17.33
2022-12-08T02:12:50.772Z,16.20
2022-12-08T02:18:18.140Z,14.33
2022-12-08T02:23:29.372Z,15.03
2022-12-08T02:28:57.799Z,14.17
2022-12-08T02:34:30.867Z,14.90
2022-12-08T02:39:46.250Z,15.93
2022-12-08T02:44:56.494Z,15.30
2022-12-08T02:50:06.287Z,17.37
2022-12-08T02:55:45.157Z,17.53
2022-12-08T03:01:00.433Z,18.20
2022-12-08T03:06:31.542Z,14.80
2022-12-08T03:11:43.752Z,16.87
2022-12-08T03:16:53.879Z,15.40
2022-12-08T03:22:05.705Z,14.93
2022-12-08T03:27:19.732Z,14.73
2022-12-08T03:32:44.505Z,13.53
2022-12-08T03:37:52.477Z,18.43
2022-12-08T03:43:00.368Z,13.30
2022-12-08T03:48:08.778Z,15.30
2022-12-08T03:53:16.746Z,12.93
2022-12-08T03:58:24.864Z,13.57
2022-12-08T04:03:33.494Z,13.03
2022-12-08T04:08:41.447Z,12.90
2022-12-08T04:13:49.516Z,13.03
2022-12-08T04:18:58.429Z,10.43
2022-12-08T04:24:07.317Z,14.93
2022-12-08T04:29:15.635Z,16.20
2022-12-08T04:34:23.567Z,15.73
2022-12-08T04:39:31.726Z,16.33
2022-12-08T04:44:39.382Z,19.60
2022-12-08T04:49:46.959Z,16.33
2022-12-08T04:54:54.705Z,18.07
2022-12-08T05:00:02.966Z,12.30
2022-12-08T05:05:11.632Z,17.97
2022-12-08T05:10:19.711Z,13.07
2022-12-08T05:15:27.650Z,18.20
2022-12-08T05:20:35.704Z,18.10
2022-12-08T05:25:46.167Z,17.40
2022-12-08T05:30:53.862Z,12.70
2022-12-08T05:36:01.890Z,14.53
2022-12-08T05:41:10.156Z,17.43
2022-12-08T05:46:18.124Z,18.47
2022-12-08T05:51:26.088Z,15.93
2022-12-08T05:56:33.464Z,15.70
2022-12-08T06:01:41.197Z,16.00
2022-12-08T06:06:49.461Z,16.27
2022-12-08T06:11:57.595Z,17.07
2022-12-08T06:17:06.322Z,19.13
2022-12-08T06:22:13.841Z,24.57
2022-12-08T06:27:21.188Z,23.93
2022-12-08T06:32:29.299Z,19.83
2022-12-08T06:37:36.687Z,17.10
2022-12-08T06:42:47.721Z,20.83
2022-12-08T06:47:55.496Z,19.80
2022-12-08T06:53:05.653Z,22.33
2022-12-08T06:58:13.549Z,24.27
2022-12-08T07:03:21.313Z,22.80
2022-12-08T07:08:29.746Z,21.97
2022-12-08T07:13:37.959Z,19.80
2022-12-08T07:18:45.807Z,26.60
2022-12-08T07:23:57.650Z,23.17
2022-12-08T07:29:10.034Z,23.67
2022-12-08T07:34:22.508Z,17.70
2022-12-08T07:39:36.325Z,17.03
2022-12-08T07:44:46.474Z,15.37
2022-12-08T07:50:22.515Z,18.17
2022-12-08T07:55:43.152Z,19.23
2022-12-08T08:00:52.252Z,16.70
2022-12-08T08:06:05.415Z,21.33
2022-12-08T08:11:21.220Z,18.00
2022-12-08T08:22:08.215Z,14.97
2022-12-08T08:27:17.012Z,19.13
2022-12-08T08:32:24.930Z,20.93
2022-12-08T08:37:33.283Z,21.03
2022-12-08T08:42:43.136Z,20.30
2022-12-08T08:47:51.095Z,18.27
2022-12-08T08:52:59.338Z,16.53
2022-12-08T08:58:07.769Z,18.67
2022-12-08T09:03:16.664Z,21.07
2022-12-08T09:08:25.762Z,19.60
2022-12-08T09:13:36.883Z,15.73
2022-12-08T09:18:50.055Z,17.17
2022-12-08T09:24:02.059Z,17.70
2022-12-08T09:29:13.883Z,17.60
2022-12-08T09:34:22.411Z,18.73
2022-12-08T09:39:31.382Z,14.03
2022-12-08T09:45:05.830Z,13.10
2022-12-08T09:50:35.216Z,9.93
2022-12-08T09:55:51.879Z,15.17
2022-12-08T10:01:01.542Z,10.40
2022-12-08T10:06:16.523Z,10.40
2022-12-08T10:11:53.476Z,7.53
2022-12-08T10:17:11.447Z,9.33
2022-12-08T10:27:27.895Z,13.75
2022-12-08T10:32:36.869Z,11.50
2022-12-08T10:37:58.741Z,10.17
2022-12-08T10:43:07.818Z,10.10
2022-12-08T10:48:18.054Z,14.50
2022-12-08T10:53:30.917Z,10.10
2022-12-08T10:58:42.900Z,8.03
2022-12-08T11:03:52.327Z,13.67
2022-12-08T11:09:07.757Z,10.30
2022-12-08T11:14:27.094Z,11.40
2022-12-08T11:19:43.966Z,14.80
2022-12-08T11:25:06.275Z,10.43
2022-12-08T11:30:22.524Z,8.53
2022-12-08T11:35:41.480Z,8.17
2022-12-08T11:40:57.056Z,11.03
2022-12-08T11:46:07.285Z,11.73
2022-12-08T11:51:27.280Z,13.27
2022-12-08T11:56:44.160Z,11.90
2022-12-08T12:01:52.057Z,12.53
2022-12-08T12:07:36.061Z,10.47
2022-12-08T12:13:04.933Z,14.13
2022-12-08T12:18:29.926Z,11.53
2022-12-08T12:24:13.775Z,12.07
2022-12-08T12:29:24.075Z,13.07
2022-12-08T12:34:38.444Z,10.43
2022-12-08T12:39:55.937Z,12.90
2022-12-08T12:45:22.015Z,17.47
2022-12-08T12:50:38.029Z,12.93
2022-12-08T12:55:56.671Z,13.93
2022-12-08T13:01:22.850Z,17.63
2022-12-08T13:06:39.841Z,15.53
2022-12-08T13:11:52.825Z,12.40
2022-12-08T13:17:01.104Z,14.60
2022-12-08T13:22:45.870Z,14.40
2022-12-08T13:27:57.038Z,14.83
2022-12-08T13:33:20.510Z,12.47
2022-12-08T13:38:17.168Z,14.17
2022-12-08T13:43:47.702Z,14.13
2022-12-08T13:50:32.399Z,15.77
2022-12-08T13:59:32.808Z,15.90
2022-12-08T14:05:16.405Z,14.83
2022-12-08T14:09:51.746Z,18.03
2022-12-08T14:15:04.574Z,19.75
2022-12-08T14:20:46.375Z,21.07
2022-12-08T14:25:42.121Z,32.37
2022-12-08T14:30:59.460Z,29.13
2022-12-08T14:36:08.670Z,23.70
2022-12-08T14:41:18.015Z,21.20
2022-12-08T14:46:26.975Z,24.90
2022-12-08T14:51:37.165Z,25.00
2022-12-08T14:56:52.376Z,24.93
2022-12-08T15:02:29.549Z,25.30
2022-12-08T15:07:46.896Z,29.63
2022-12-08T15:13:03.786Z,23.50
2022-12-08T15:18:21.977Z,24.07
2022-12-08T15:23:31.812Z,36.63
2022-12-08T15:28:40.536Z,24.53
2022-12-08T15:33:49.961Z,30.83
2022-12-08T15:38:57.628Z,53.30
2022-12-08T15:44:06.078Z,55.27
2022-12-08T15:49:22.506Z,38.83
2022-12-08T15:54:30.311Z,25.93
2022-12-08T15:59:38.178Z,26.30
2022-12-08T16:09:57.352Z,27.80
2022-12-08T16:20:20.099Z,27.87
2022-12-08T16:25:46.059Z,23.23
2022-12-08T16:30:40.655Z,25.75
2022-12-08T16:35:50.418Z,34.10
2022-12-08T16:41:16.044Z,35.30
2022-12-08T16:46:26.038Z,31.60
2022-12-08T16:51:34.139Z,29.20
2022-12-08T16:56:41.912Z,28.67
2022-12-08T17:01:49.681Z,32.40
2022-12-08T17:06:59.176Z,27.00
2022-12-08T17:12:06.963Z,25.33
2022-12-08T17:17:14.711Z,30.87
2022-12-08T17:22:22.911Z,30.50
2022-12-08T17:27:30.501Z,26.47
2022-12-08T17:32:39.264Z,27.67
2022-12-08T17:37:47.461Z,27.47
2022-12-08T17:42:56.325Z,28.57
2022-12-08T17:48:04.538Z,24.70
2022-12-08T17:53:12.982Z,24.10
2022-12-08T17:58:23.553Z,31.80
2022-12-08T18:03:32.287Z,31.23
2022-12-08T18:08:42.021Z,31.47
2022-12-08T18:13:50.322Z,32.77
2022-12-08T18:18:58.513Z,38.67
2022-12-08T18:24:06.748Z,29.87
2022-12-08T18:29:16.683Z,36.57
2022-12-08T18:34:26.299Z,44.97
2022-12-08T18:39:35.050Z,25.43
2022-12-08T18:44:44.803Z,23.60
2022-12-08T18:49:52.695Z,25.37
2022-12-08T18:55:06.692Z,21.80
2022-12-08T19:00:14.581Z,24.00
2022-12-08T19:05:23.288Z,31.83
2022-12-08T19:10:32.938Z,28.27
2022-12-08T19:15:40.992Z,28.87
2022-12-08T19:20:48.799Z,30.90
2022-12-08T19:25:58.649Z,21.17
2022-12-08T19:31:08.900Z,27.07
2022-12-08T19:36:18.237Z,29.00
2022-12-08T19:41:46.274Z,32.23
2022-12-08T19:46:54.354Z,32.70
2022-12-08T19:52:02.504Z,31.87
2022-12-08T19:57:11.794Z,35.57
2022-12-08T20:02:19.868Z,36.03
2022-12-08T20:07:28.111Z,34.17
2022-12-08T20:12:36.905Z,32.40
2022-12-08T20:17:44.672Z,32.13
2022-12-08T20:22:52.190Z,32.77
2022-12-08T20:27:59.668Z,35.33
2022-12-08T20:33:07.468Z,30.83
2022-12-08T20:38:16.289Z,33.43
2022-12-08T20:43:26.629Z,28.70
2022-12-08T20:48:35.358Z,32.23
2022-12-08T20:53:43.398Z,32.37
2022-12-08T20:58:51.770Z,33.70
2022-12-08T21:04:00.840Z,33.10
2022-12-08T21:09:09.961Z,36.50
2022-12-08T21:14:20.031Z,38.43
2022-12-08T21:19:29.553Z,34.00
2022-12-08T21:24:38.141Z,36.57
2022-12-08T21:29:46.093Z,38.90
2022-12-08T21:34:53.639Z,29.20
2022-12-08T21:40:01.466Z,33.77
2022-12-08T21:45:11.892Z,33.80
2022-12-08T21:50:20.319Z,35.60
2022-12-08T21:55:31.863Z,43.10
2022-12-08T22:00:40.622Z,38.47
2022-12-08T22:05:49.049Z,37.63
2022-12-08T22:10:57.008Z,34.17
2022-12-08T22:16:06.683Z,35.17
2022-12-08T22:21:16.787Z,42.47
2022-12-08T22:26:24.532Z,42.33
2022-12-08T22:31:34.121Z,36.83
2022-12-08T22:36:42.681Z,38.47
2022-12-08T22:41:51.119Z,38.67
2022-12-08T22:46:59.662Z,36.83
2022-12-08T22:52:07.468Z,39.60
2022-12-08T22:57:15.111Z,34.17
2022-12-08T23:02:23.502Z,41.33
2022-12-08T23:07:31.288Z,35.37
2022-12-08T23:12:41.445Z,39.00
2022-12-08T23:17:49.645Z,43.13
2022-12-08T23:22:58.419Z,38.37
2022-12-08T23:28:06.231Z,50.53
2022-12-08T23:33:14.283Z,48.30
2022-12-08T23:38:23.057Z,44.30
2022-12-08T23:43:31.718Z,42.33
2022-12-08T23:48:40.258Z,43.23
2022-12-08T23:53:48.458Z,38.70
2022-12-08T23:58:56.398Z,45.90
